Hoboken, Belgium
Current Conditions -  °F | °C
As of 1:50 AM on Thursday 23 Oct 2014 (Local Time) from EBAW Reporting Station
Clear Clear  
Wind Chill: 50°   Ceiling: Unl
Heat Index: 50°   Visibility: 6mi
Dew Point: 45°   Wind: 8mph
Humidity: 82%   Direction: 230°SW
Pressure: 30.21"   Gusts: NA
Location:  51.18°N, 4.35°E
Report Text: EBAW 222350Z AUTO 23007KT CAVOK 10/07 Q1023
Loading
Personal Weather Stations






























Interactive Weather Map New forecast layout! Learn more

10-Day Weather Forecast

Advertisements
Track Severe Weather on mobile